createdAt,value
2023-04-18T00:00:35.947Z,55.7806
2023-04-18T00:01:38.274Z,55.9034
2023-04-18T00:02:40.752Z,55.6774
2023-04-18T00:03:43.223Z,56.0006
2023-04-18T00:04:45.544Z,55.9627
2023-04-18T00:05:47.580Z,55.9396
2023-04-18T00:06:49.922Z,56.0522
2023-04-18T00:07:52.249Z,56.1336
2023-04-18T00:08:54.615Z,56.2912
2023-04-18T00:09:56.926Z,56.4196
2023-04-18T00:10:59.243Z,56.6843
2023-04-18T00:12:01.593Z,56.4820
2023-04-18T00:13:03.933Z,56.7679
2023-04-18T00:14:06.252Z,57.0670
2023-04-18T00:15:08.588Z,57.2220
2023-04-18T00:16:10.958Z,56.8738
2023-04-18T00:17:13.313Z,56.8299
2023-04-18T00:18:15.599Z,56.9082
2023-04-18T00:19:17.924Z,56.6568
2023-04-18T00:20:20.257Z,56.7600
2023-04-18T00:21:22.679Z,56.4591
2023-04-18T00:22:24.931Z,56.4391
2023-04-18T00:23:27.284Z,56.3122
2023-04-18T00:24:29.593Z,56.8261
2023-04-18T00:25:31.928Z,56.9491
2023-04-18T00:26:34.260Z,57.0223
2023-04-18T00:27:36.599Z,56.9605
2023-04-18T00:28:38.937Z,56.9718
2023-04-18T00:29:41.269Z,56.8474
2023-04-18T00:30:43.643Z,56.4022
2023-04-18T00:31:45.995Z,56.7667
2023-04-18T00:32:48.323Z,57.1955
2023-04-18T00:33:50.666Z,57.3580
2023-04-18T00:34:52.953Z,57.1308
2023-04-18T00:35:55.281Z,56.7498
2023-04-18T00:36:57.624Z,56.5349
2023-04-18T00:37:59.952Z,56.7897
2023-04-18T00:39:02.338Z,56.6205
2023-04-18T00:40:04.625Z,56.7506
2023-04-18T00:41:06.960Z,57.1329
2023-04-18T00:42:09.298Z,57.3980
2023-04-18T00:43:11.624Z,57.3054
2023-04-18T00:44:14.226Z,57.2649
2023-04-18T00:45:16.290Z,57.2074
2023-04-18T00:46:18.672Z,57.0449
2023-04-18T00:47:20.981Z,56.7702
2023-04-18T00:48:23.303Z,56.6688
2023-04-18T00:49:25.647Z,56.7565
2023-04-18T00:50:27.981Z,56.3909
2023-04-18T00:51:30.295Z,56.0830
2023-04-18T00:52:32.629Z,55.8035
2023-04-18T00:53:34.962Z,55.6519
2023-04-18T00:54:37.310Z,55.9267
2023-04-18T00:55:39.641Z,56.5546
2023-04-18T00:56:41.977Z,56.3932
2023-04-18T00:57:44.310Z,55.9981
2023-04-18T00:58:46.646Z,56.0147
2023-04-18T00:59:49.002Z,55.8643
2023-04-18T01:00:51.315Z,55.7909
2023-04-18T01:01:53.833Z,55.9854
2023-04-18T01:02:56.174Z,56.0842
2023-04-18T01:03:58.409Z,56.1696
2023-04-18T01:05:00.732Z,56.0982
2023-04-18T01:06:03.021Z,55.7592
2023-04-18T01:07:05.341Z,55.6173
2023-04-18T01:08:07.672Z,55.6221
2023-04-18T01:09:10.006Z,55.3118
2023-04-18T01:10:12.355Z,55.4089
2023-04-18T01:11:14.686Z,55.4515
2023-04-18T01:12:17.031Z,55.2379
2023-04-18T01:13:19.347Z,55.2100
2023-04-18T01:14:21.680Z,55.1062
2023-04-18T01:15:24.085Z,55.2131
2023-04-18T01:16:26.441Z,55.2888
2023-04-18T01:17:28.724Z,55.2827
2023-04-18T01:18:31.010Z,55.4926
2023-04-18T01:19:33.341Z,55.6722
2023-04-18T01:20:35.681Z,55.6803
2023-04-18T01:21:37.996Z,55.6439
2023-04-18T01:22:40.374Z,55.8758
2023-04-18T01:23:42.670Z,55.8919
2023-04-18T01:24:45.007Z,55.4685
2023-04-18T01:25:47.373Z,55.0777
2023-04-18T01:26:49.670Z,54.7146
2023-04-18T01:27:52.027Z,54.8423
2023-04-18T01:28:54.344Z,54.9037
2023-04-18T01:29:56.684Z,54.8566
2023-04-18T01:30:59.049Z,54.5814
2023-04-18T01:32:01.400Z,54.6696
2023-04-18T01:33:03.739Z,54.2631
2023-04-18T01:34:06.043Z,54.1564
2023-04-18T01:35:08.376Z,54.5042
2023-04-18T01:36:10.707Z,54.5073
2023-04-18T01:37:13.034Z,54.2066
2023-04-18T01:38:15.384Z,54.6043
2023-04-18T01:39:17.706Z,54.6349
2023-04-18T01:40:20.043Z,54.8314
2023-04-18T01:41:22.376Z,54.7862
2023-04-18T01:42:24.717Z,54.7787
2023-04-18T01:43:27.211Z,54.6979
2023-04-18T01:44:29.440Z,54.7924
2023-04-18T01:45:31.721Z,54.9462
2023-04-18T01:46:34.054Z,55.2863
2023-04-18T01:47:36.407Z,54.9738
2023-04-18T01:48:38.709Z,54.9300
2023-04-18T01:49:41.060Z,54.7563
2023-04-18T01:50:43.403Z,54.7758
2023-04-18T01:51:45.735Z,54.8772
2023-04-18T01:52:48.052Z,55.0414
2023-04-18T01:53:50.382Z,55.2881
2023-04-18T01:54:52.728Z,55.3945
2023-04-18T01:55:55.062Z,54.9602
2023-04-18T01:56:57.413Z,54.9800
2023-04-18T01:57:59.734Z,55.1045
2023-04-18T01:59:02.073Z,55.2665
2023-04-18T02:00:04.436Z,55.3721
2023-04-18T02:01:06.773Z,55.4177
2023-04-18T02:02:09.168Z,55.5035
2023-04-18T02:03:11.511Z,55.3498
2023-04-18T02:04:14.124Z,55.5448
2023-04-18T02:05:16.084Z,55.7783
2023-04-18T02:06:18.404Z,55.7846
2023-04-18T02:07:20.780Z,55.8705
2023-04-18T02:08:23.065Z,55.7376
2023-04-18T02:09:25.409Z,55.8306
2023-04-18T02:10:27.735Z,56.1285
2023-04-18T02:11:30.077Z,56.2607
2023-04-18T02:12:32.424Z,56.3822
2023-04-18T02:13:34.750Z,56.4894
2023-04-18T02:14:37.109Z,56.4752
2023-04-18T02:15:39.417Z,56.3879
2023-04-18T02:16:41.782Z,56.2466
2023-04-18T02:17:44.188Z,56.1455
2023-04-18T02:18:46.422Z,56.1933
2023-04-18T02:19:48.756Z,56.2431
2023-04-18T02:20:51.097Z,56.2621
2023-04-18T02:21:53.424Z,56.5510
2023-04-18T02:22:55.770Z,56.8804
2023-04-18T02:23:58.095Z,56.6536
2023-04-18T02:25:00.439Z,56.5289
2023-04-18T02:26:02.808Z,56.3523
2023-04-18T02:27:05.101Z,56.2985
2023-04-18T02:28:07.436Z,56.6293
2023-04-18T02:29:09.779Z,56.7807
2023-04-18T02:30:12.106Z,56.8343
2023-04-18T02:31:14.560Z,56.9724
2023-04-18T02:32:16.778Z,56.7503
2023-04-18T02:33:19.123Z,56.5861
2023-04-18T02:34:21.431Z,56.7842
2023-04-18T02:35:23.765Z,56.9937
2023-04-18T02:36:26.121Z,57.0899
2023-04-18T02:37:28.437Z,56.8526
2023-04-18T02:38:30.792Z,56.7894
2023-04-18T02:39:33.113Z,56.9392
2023-04-18T02:40:35.450Z,56.8990
2023-04-18T02:41:37.787Z,56.7148
2023-04-18T02:42:40.116Z,56.9878
2023-04-18T02:43:42.500Z,56.7987
2023-04-18T02:44:44.799Z,56.3205
2023-04-18T02:45:47.142Z,56.3778
2023-04-18T02:46:49.471Z,56.4260
2023-04-18T02:47:56.027Z,56.5729
2023-04-18T02:48:54.147Z,56.9254
2023-04-18T02:49:56.486Z,57.3509
2023-04-18T02:50:58.826Z,57.2691
2023-04-18T02:52:01.258Z,57.0263
2023-04-18T02:53:03.508Z,57.1637
2023-04-18T02:54:05.833Z,57.4282
2023-04-18T02:55:08.163Z,57.1239
2023-04-18T02:56:10.499Z,56.5563
2023-04-18T02:57:12.841Z,56.8397
2023-04-18T02:58:15.191Z,56.7326
2023-04-18T02:59:17.506Z,56.3446
2023-04-18T03:00:19.845Z,56.4681
2023-04-18T03:01:22.213Z,56.8221
2023-04-18T03:02:24.560Z,56.7856
2023-04-18T03:03:26.921Z,56.6569
2023-04-18T03:04:29.224Z,56.7679
2023-04-18T03:05:31.528Z,56.6279
2023-04-18T03:06:33.869Z,56.7684
2023-04-18T03:07:36.265Z,56.9132
2023-04-18T03:08:38.553Z,57.0585
2023-04-18T03:09:40.884Z,56.9756
2023-04-18T03:10:43.207Z,56.5360
2023-04-18T03:11:45.558Z,56.6348
2023-04-18T03:12:47.887Z,56.6208
2023-04-18T03:13:50.238Z,56.7286
2023-04-18T03:14:52.565Z,57.0850
2023-04-18T03:15:54.896Z,57.1643
2023-04-18T03:16:57.239Z,57.0471
2023-04-18T03:17:59.616Z,57.1467
2023-04-18T03:19:01.915Z,57.0434
2023-04-18T03:20:04.236Z,56.8521
2023-04-18T03:21:06.570Z,56.9792
2023-04-18T03:22:08.906Z,57.0872
2023-04-18T03:23:11.242Z,56.7867
2023-04-18T03:24:13.768Z,56.6042
2023-04-18T03:25:15.913Z,56.5305
2023-04-18T03:26:18.247Z,56.5728
2023-04-18T03:27:20.586Z,56.3284
2023-04-18T03:28:22.928Z,56.4602
2023-04-18T03:29:25.275Z,56.5962
2023-04-18T03:30:27.611Z,56.5436
2023-04-18T03:31:29.978Z,56.4910
2023-04-18T03:32:32.312Z,56.2962
2023-04-18T03:33:34.645Z,56.5570
2023-04-18T03:34:36.975Z,56.6581
2023-04-18T03:35:39.314Z,56.9710
2023-04-18T03:36:41.684Z,57.2492
2023-04-18T03:37:44.008Z,56.9855
2023-04-18T03:38:46.338Z,56.8127
2023-04-18T03:39:48.683Z,56.4221
2023-04-18T03:40:51.006Z,56.1887
2023-04-18T03:41:53.357Z,56.0697
2023-04-18T03:42:55.679Z,55.8700
2023-04-18T03:43:58.025Z,55.6108
2023-04-18T03:45:00.371Z,55.5655
2023-04-18T03:46:02.811Z,55.5745
2023-04-18T03:47:05.125Z,55.8103
2023-04-18T03:48:07.448Z,56.1584
2023-04-18T03:49:09.797Z,56.3713
2023-04-18T03:50:12.154Z,56.3344
2023-04-18T03:51:14.473Z,56.0625
2023-04-18T03:52:16.801Z,55.5614
2023-04-18T03:53:19.137Z,55.3233
2023-04-18T03:54:21.503Z,55.5906
2023-04-18T03:55:23.827Z,55.9020
2023-04-18T03:56:26.160Z,55.8016
2023-04-18T03:57:28.500Z,55.0894
2023-04-18T03:58:30.840Z,54.3624
2023-04-18T03:59:33.177Z,53.8458
2023-04-18T04:00:35.538Z,54.3499
2023-04-18T04:01:37.865Z,54.2491
2023-04-18T04:02:40.402Z,54.2053
2023-04-18T04:03:42.756Z,54.3347
2023-04-18T04:04:44.954Z,53.8872
2023-04-18T04:05:47.243Z,54.1275
2023-04-18T04:06:49.554Z,54.7463
2023-04-18T04:07:51.900Z,55.0682
2023-04-18T04:08:54.236Z,55.5698
2023-04-18T04:09:56.595Z,55.9928
2023-04-18T04:10:59.032Z,55.8914
2023-04-18T04:12:01.270Z,56.4100
2023-04-18T04:13:03.602Z,55.9756
2023-04-18T04:14:05.943Z,55.8583
2023-04-18T04:15:08.297Z,55.6564
2023-04-18T04:16:10.668Z,55.7405
2023-04-18T04:17:12.990Z,55.8211
2023-04-18T04:18:15.333Z,55.7734
2023-04-18T04:19:17.658Z,55.8368
2023-04-18T04:20:20.005Z,55.5493
2023-04-18T04:21:22.335Z,55.4841
2023-04-18T04:22:24.669Z,55.6257
2023-04-18T04:23:27.000Z,55.9156
2023-04-18T04:24:29.459Z,56.3079
2023-04-18T04:25:31.677Z,56.3601
2023-04-18T04:26:34.024Z,56.2592
2023-04-18T04:27:36.344Z,56.3267
2023-04-18T04:28:38.688Z,56.3256
2023-04-18T04:29:41.029Z,56.3520
2023-04-18T04:30:43.424Z,56.5058
2023-04-18T04:31:45.708Z,56.3998
2023-04-18T04:32:48.114Z,56.5602
2023-04-18T04:33:50.372Z,56.6883
2023-04-18T04:34:52.722Z,56.5208
2023-04-18T04:35:55.118Z,56.4352
2023-04-18T04:36:57.454Z,56.1537
2023-04-18T04:37:59.735Z,56.1842
2023-04-18T04:39:02.973Z,56.1863
2023-04-18T04:40:04.607Z,56.3060
2023-04-18T04:41:06.759Z,56.3856
2023-04-18T04:42:09.081Z,56.5465
2023-04-18T04:43:11.419Z,56.0229
2023-04-18T04:44:13.999Z,55.8479
2023-04-18T04:45:16.144Z,56.2493
2023-04-18T04:46:18.537Z,56.4224
2023-04-18T04:47:20.767Z,56.2164
2023-04-18T04:48:23.104Z,56.2504
2023-04-18T04:49:25.452Z,56.2590
2023-04-18T04:50:27.782Z,56.4909
2023-04-18T04:51:30.116Z,56.3232
2023-04-18T04:52:32.459Z,56.4558
2023-04-18T04:53:34.799Z,56.6454
2023-04-18T04:54:37.200Z,56.4817
2023-04-18T04:55:39.481Z,55.7991
2023-04-18T04:56:41.836Z,56.2507
2023-04-18T04:57:44.160Z,56.2273
2023-04-18T04:58:46.495Z,56.1226
2023-04-18T04:59:48.849Z,56.4619
2023-04-18T05:00:51.378Z,56.2012
2023-04-18T05:01:53.641Z,56.3826
2023-04-18T05:02:55.991Z,56.4782
2023-04-18T05:03:58.316Z,56.4533
2023-04-18T05:05:00.564Z,56.2108
2023-04-18T05:06:03.453Z,55.8617
2023-04-18T05:07:05.215Z,55.4972
2023-04-18T05:08:07.550Z,55.7385
2023-04-18T05:09:09.895Z,55.7092
2023-04-18T05:10:12.251Z,55.4861
2023-04-18T05:11:14.589Z,55.6641
2023-04-18T05:12:17.028Z,56.0366
2023-04-18T05:13:19.901Z,56.7301
2023-04-18T05:14:21.595Z,56.9487
2023-04-18T05:15:23.929Z,56.8258
2023-04-18T05:16:26.300Z,56.5443
2023-04-18T05:17:28.665Z,56.8548
2023-04-18T05:18:32.551Z,56.7589
2023-04-18T05:19:33.285Z,56.6340
2023-04-18T05:20:35.622Z,56.5617
2023-04-18T05:21:37.962Z,56.6511
2023-04-18T05:22:40.303Z,56.3928
2023-04-18T05:23:42.641Z,56.2404
2023-04-18T05:24:44.987Z,56.0222
2023-04-18T05:25:47.326Z,56.0476
2023-04-18T05:26:49.686Z,55.8994
2023-04-18T05:27:52.038Z,55.4811
2023-04-18T05:28:54.358Z,55.8273
2023-04-18T05:29:56.689Z,55.9664
2023-04-18T05:30:59.063Z,55.6553
2023-04-18T05:32:01.401Z,55.7133
2023-04-18T05:33:03.724Z,55.7357
2023-04-18T05:34:06.027Z,55.1951
2023-04-18T05:35:08.359Z,55.2958
2023-04-18T05:36:10.696Z,55.5704
2023-04-18T05:37:13.057Z,55.4843
2023-04-18T05:38:15.374Z,55.5783
2023-04-18T05:39:17.719Z,55.8159
2023-04-18T05:40:20.057Z,55.8115
2023-04-18T05:41:22.400Z,55.9821
2023-04-18T05:42:24.749Z,56.0100
2023-04-18T05:43:27.085Z,55.9695
2023-04-18T05:44:29.410Z,56.1497
2023-04-18T05:45:31.753Z,56.2915
2023-04-18T05:46:34.136Z,56.1197
2023-04-18T05:47:36.462Z,55.8796
2023-04-18T05:48:38.770Z,56.2302
2023-04-18T05:49:41.103Z,55.9678
2023-04-18T05:50:43.448Z,55.6888
2023-04-18T05:51:45.780Z,55.4931
2023-04-18T05:52:48.133Z,55.1796
2023-04-18T05:53:50.453Z,54.8882
2023-04-18T05:54:52.800Z,54.7370
2023-04-18T05:55:55.158Z,55.4970
2023-04-18T05:56:57.472Z,55.6035
2023-04-18T05:57:59.805Z,55.4270
2023-04-18T05:59:02.345Z,55.0057
2023-04-18T06:00:04.508Z,54.3375
2023-04-18T06:01:06.833Z,54.2607
2023-04-18T06:02:09.233Z,54.5147
2023-04-18T06:03:11.829Z,54.3864
2023-04-18T06:04:14.351Z,53.6089
2023-04-18T06:05:16.367Z,53.5853
2023-04-18T06:06:18.518Z,53.8744
2023-04-18T06:07:20.854Z,54.2401
2023-04-18T06:08:23.187Z,53.7510
2023-04-18T06:09:25.534Z,53.4388
2023-04-18T06:10:27.884Z,53.5915
2023-04-18T06:11:30.215Z,53.4887
2023-04-18T06:12:32.543Z,53.6464
2023-04-18T06:13:34.890Z,53.9417
2023-04-18T06:14:37.254Z,53.9878
2023-04-18T06:15:39.571Z,54.2551
2023-04-18T06:16:41.950Z,54.3371
2023-04-18T06:17:44.283Z,54.6102
2023-04-18T06:18:46.567Z,54.3845
2023-04-18T06:19:48.932Z,54.6137
2023-04-18T06:20:51.257Z,54.4768
2023-04-18T06:21:53.604Z,54.7077
2023-04-18T06:22:55.928Z,54.5581
2023-04-18T06:23:58.277Z,54.3554
2023-04-18T06:25:00.612Z,54.6160
2023-04-18T06:26:02.971Z,54.5006
2023-04-18T06:27:05.295Z,54.5409
2023-04-18T06:28:07.644Z,54.2658
2023-04-18T06:29:09.965Z,54.9687
2023-04-18T06:30:12.300Z,55.3369
2023-04-18T06:31:14.688Z,54.9420
2023-04-18T06:32:16.981Z,54.7217
2023-04-18T06:33:19.334Z,54.5989
2023-04-18T06:34:21.664Z,54.6701
2023-04-18T06:35:26.361Z,54.9215
2023-04-18T06:36:26.357Z,54.7734
2023-04-18T06:37:28.689Z,55.0071
2023-04-18T06:38:31.028Z,55.1540
2023-04-18T06:39:33.364Z,55.2326
2023-04-18T06:40:35.752Z,55.1029
2023-04-18T06:41:38.047Z,54.2484
2023-04-18T06:42:40.390Z,54.1260
2023-04-18T06:43:52.064Z,54.4703
2023-04-18T06:44:45.074Z,54.8502
2023-04-18T06:45:47.539Z,55.1576
2023-04-18T06:46:49.748Z,55.5348
2023-04-18T06:47:52.091Z,55.6070
2023-04-18T06:48:54.415Z,55.4298
2023-04-18T06:49:56.750Z,55.0349
2023-04-18T06:50:59.089Z,54.7308
2023-04-18T06:52:01.424Z,54.4585
2023-04-18T06:53:03.761Z,54.5863
2023-04-18T06:54:06.095Z,54.3151
2023-04-18T06:55:08.432Z,54.5726
2023-04-18T06:56:10.766Z,54.4747
2023-04-18T06:57:13.105Z,54.3443
2023-04-18T06:58:15.438Z,54.5088
2023-04-18T06:59:17.772Z,54.5025
2023-04-18T07:00:20.107Z,54.7424
2023-04-18T07:01:22.606Z,54.4388
2023-04-18T07:02:24.922Z,54.4967
2023-04-18T07:03:27.316Z,54.4539
2023-04-18T07:04:29.524Z,53.9539
2023-04-18T07:05:31.796Z,54.0779
2023-04-18T07:06:34.140Z,54.2913
2023-04-18T07:07:36.485Z,54.7927
2023-04-18T07:08:38.805Z,54.9329
2023-04-18T07:09:41.188Z,54.8006
2023-04-18T07:10:43.487Z,54.2441
2023-04-18T07:11:45.847Z,53.9804
2023-04-18T07:12:48.160Z,53.9090
2023-04-18T07:13:50.494Z,54.0014
2023-04-18T07:14:52.826Z,53.8700
2023-04-18T07:15:55.164Z,53.9363
2023-04-18T07:16:57.667Z,53.6187
2023-04-18T07:17:59.895Z,53.9384
2023-04-18T07:19:02.192Z,54.1379
2023-04-18T07:20:04.519Z,54.1921
2023-04-18T07:21:06.852Z,54.0376
2023-04-18T07:22:09.189Z,53.7204
2023-04-18T07:23:11.524Z,53.9902
2023-04-18T07:24:14.273Z,53.9988
2023-04-18T07:25:16.220Z,54.2555
2023-04-18T07:26:18.546Z,54.3565
2023-04-18T07:27:20.880Z,53.9167
2023-04-18T07:28:23.235Z,54.1463
2023-04-18T07:29:25.564Z,54.4107
2023-04-18T07:30:27.960Z,54.4751
2023-04-18T07:31:30.357Z,54.6240
2023-04-18T07:32:32.640Z,53.8478
2023-04-18T07:33:34.929Z,53.9322
2023-04-18T07:34:37.272Z,54.2335
2023-04-18T07:35:39.592Z,54.1836
2023-04-18T07:36:41.926Z,54.0745
2023-04-18T07:37:44.269Z,53.4574
2023-04-18T07:38:46.608Z,54.0611
2023-04-18T07:39:48.948Z,54.3489
2023-04-18T07:40:51.279Z,54.0959
2023-04-18T07:41:53.618Z,54.0039
2023-04-18T07:42:55.955Z,53.5720
2023-04-18T07:43:58.303Z,53.6732
2023-04-18T07:45:00.645Z,53.7218
2023-04-18T07:46:03.091Z,53.9226
2023-04-18T07:47:05.313Z,53.7989
2023-04-18T07:48:07.800Z,53.6532
2023-04-18T07:49:09.984Z,53.5887
2023-04-18T07:50:12.332Z,53.9589
2023-04-18T07:51:14.666Z,53.7334
2023-04-18T07:52:17.077Z,53.5297
2023-04-18T07:53:19.430Z,53.0605
2023-04-18T07:54:21.764Z,53.4569
2023-04-18T07:55:24.095Z,53.4595
2023-04-18T07:56:26.442Z,53.1446
2023-04-18T07:57:28.761Z,53.4953
2023-04-18T07:58:31.105Z,53.3852
2023-04-18T07:59:33.441Z,53.2647
2023-04-18T08:00:35.767Z,53.1299
2023-04-18T08:01:38.114Z,53.2169
2023-04-18T08:02:40.571Z,53.7486
2023-04-18T08:03:43.097Z,53.8109
2023-04-18T08:04:45.312Z,53.6692
2023-04-18T08:05:47.467Z,53.6272
2023-04-18T08:06:49.795Z,53.1228
2023-04-18T08:07:52.136Z,52.6520
2023-04-18T08:08:54.476Z,52.5841
2023-04-18T08:09:56.916Z,52.3831
2023-04-18T08:10:59.152Z,52.0857
2023-04-18T08:12:01.492Z,52.3262
2023-04-18T08:13:03.823Z,52.7043
2023-04-18T08:14:06.174Z,52.7824
2023-04-18T08:15:08.542Z,52.6087
2023-04-18T08:16:10.904Z,52.6678
2023-04-18T08:17:13.191Z,52.6924
2023-04-18T08:18:15.527Z,52.5219
2023-04-18T08:19:17.910Z,52.5324
2023-04-18T08:20:20.217Z,51.8969
2023-04-18T08:21:22.549Z,51.8292
2023-04-18T08:22:24.887Z,52.7112
2023-04-18T08:23:27.221Z,52.3445
2023-04-18T08:24:29.572Z,52.3232
2023-04-18T08:25:31.914Z,52.3268
2023-04-18T08:26:34.246Z,52.6905
2023-04-18T08:27:36.591Z,52.6461
2023-04-18T08:28:38.912Z,52.1587
2023-04-18T08:29:41.255Z,52.4316
2023-04-18T08:30:43.595Z,52.9759
2023-04-18T08:31:45.988Z,52.5476
2023-04-18T08:32:48.312Z,53.1522
2023-04-18T08:33:50.617Z,52.7965
2023-04-18T08:34:52.967Z,52.7162
2023-04-18T08:35:55.296Z,52.5265
2023-04-18T08:36:57.662Z,52.4713
2023-04-18T08:37:59.980Z,52.5918
2023-04-18T08:39:02.326Z,52.2938
2023-04-18T08:40:04.665Z,52.3813
2023-04-18T08:41:06.996Z,52.1863
2023-04-18T08:42:09.346Z,52.0410
2023-04-18T08:43:11.690Z,52.0288
2023-04-18T08:44:14.138Z,52.1906
2023-04-18T08:45:16.403Z,51.2442
2023-04-18T08:46:18.727Z,50.9840
2023-04-18T08:47:21.072Z,51.6672
2023-04-18T08:48:23.398Z,51.7478
2023-04-18T08:49:25.747Z,51.9074
2023-04-18T08:50:28.072Z,52.1640
2023-04-18T08:51:30.444Z,52.4157
2023-04-18T08:52:32.754Z,52.4689
2023-04-18T08:53:35.121Z,52.4640
2023-04-18T08:54:37.453Z,52.5900
2023-04-18T08:55:39.778Z,52.7445
2023-04-18T08:56:42.147Z,52.0222
2023-04-18T08:57:44.461Z,52.1970
2023-04-18T08:58:46.813Z,52.2216
2023-04-18T08:59:50.969Z,52.3276
2023-04-18T09:00:51.536Z,52.2953
2023-04-18T09:01:53.851Z,52.4517
2023-04-18T09:02:56.442Z,52.6683
2023-04-18T09:03:58.580Z,52.3534
2023-04-18T09:05:00.882Z,51.9964
2023-04-18T09:06:03.254Z,52.5035
2023-04-18T09:07:05.539Z,52.5448
2023-04-18T09:08:07.886Z,51.8699
2023-04-18T09:09:10.232Z,50.9030
2023-04-18T09:10:12.681Z,50.3104
2023-04-18T09:11:14.923Z,50.9164
2023-04-18T09:12:17.257Z,51.1647
2023-04-18T09:13:19.627Z,50.6310
2023-04-18T09:14:21.940Z,50.3074
2023-04-18T09:15:24.302Z,51.1182
2023-04-18T09:16:26.727Z,51.9974
2023-04-18T09:17:29.013Z,50.7774
2023-04-18T09:18:31.313Z,50.5538
2023-04-18T09:19:33.652Z,51.1158
2023-04-18T09:20:36.067Z,50.9945
2023-04-18T09:21:38.357Z,51.1342
2023-04-18T09:22:40.677Z,51.1188
2023-04-18T09:23:43.016Z,50.7638
2023-04-18T09:24:45.359Z,50.1746
2023-04-18T09:25:47.700Z,49.3229
2023-04-18T09:26:50.057Z,49.2891
2023-04-18T09:27:52.380Z,48.5523
2023-04-18T09:28:54.707Z,48.9347
2023-04-18T09:29:57.993Z,49.0153
2023-04-18T09:30:59.462Z,49.6125
2023-04-18T09:32:01.776Z,50.0182
2023-04-18T09:33:04.130Z,50.2505
2023-04-18T09:34:06.407Z,49.9957
2023-04-18T09:35:08.760Z,50.0979
2023-04-18T09:36:11.092Z,50.7206
2023-04-18T09:37:13.685Z,50.2775
2023-04-18T09:38:15.761Z,49.8848
2023-04-18T09:39:18.115Z,50.2983
2023-04-18T09:40:20.451Z,49.6471
2023-04-18T09:41:22.781Z,49.1370
2023-04-18T09:42:27.401Z,48.9427
2023-04-18T09:43:27.459Z,48.7501
2023-04-18T09:44:29.804Z,49.4700
2023-04-18T09:45:32.133Z,49.3409
2023-04-18T09:46:34.645Z,49.0848
2023-04-18T09:47:36.969Z,48.4805
2023-04-18T09:48:39.152Z,48.9929
2023-04-18T09:49:41.496Z,49.2597
2023-04-18T09:50:43.820Z,49.1556
2023-04-18T09:51:46.256Z,48.8235
2023-04-18T09:52:48.515Z,48.6130
2023-04-18T09:53:50.857Z,49.3855
2023-04-18T09:54:53.182Z,49.1246
2023-04-18T09:55:57.631Z,49.7597
2023-04-18T09:56:57.862Z,49.8563
2023-04-18T09:58:00.201Z,49.3883
2023-04-18T09:59:02.534Z,50.5419
2023-04-18T10:00:04.865Z,50.4991
2023-04-18T10:01:07.208Z,49.7654
2023-04-18T10:02:09.641Z,49.7559
2023-04-18T10:03:12.083Z,49.5454
2023-04-18T10:04:14.596Z,48.6895
2023-04-18T10:05:17.613Z,48.7044
2023-04-18T10:06:18.913Z,48.1663
2023-04-18T10:07:21.240Z,48.5320
2023-04-18T10:08:23.585Z,48.6660
2023-04-18T10:09:25.921Z,48.4968
2023-04-18T10:10:28.264Z,48.5780
2023-04-18T10:11:30.587Z,48.5499
2023-04-18T10:12:32.925Z,49.2128
2023-04-18T10:13:35.268Z,49.3284
2023-04-18T10:14:37.611Z,48.3017
2023-04-18T10:15:41.148Z,47.9293
2023-04-18T10:16:42.351Z,48.2545
2023-04-18T10:17:56.069Z,48.4072
2023-04-18T10:18:46.979Z,48.1512
2023-04-18T10:19:49.302Z,48.2029
2023-04-18T10:20:51.646Z,48.1400
2023-04-18T10:21:53.986Z,47.9596
2023-04-18T10:22:56.323Z,47.2347
2023-04-18T10:23:58.777Z,47.4407
2023-04-18T10:25:01.005Z,46.8040
2023-04-18T10:26:03.347Z,46.9461
2023-04-18T10:27:05.699Z,46.8804
2023-04-18T10:28:08.058Z,46.4056
2023-04-18T10:29:10.409Z,46.9708
2023-04-18T10:30:12.732Z,47.2870
2023-04-18T10:31:15.108Z,46.8835
2023-04-18T10:32:17.422Z,46.4552
2023-04-18T10:33:30.297Z,47.3041
2023-04-18T10:34:22.330Z,47.9253
2023-04-18T10:35:24.473Z,48.2689
2023-04-18T10:36:26.825Z,48.2145
2023-04-18T10:37:29.142Z,48.3637
2023-04-18T10:38:31.483Z,48.8041
2023-04-18T10:39:33.843Z,49.3210
2023-04-18T10:40:36.170Z,48.9132
2023-04-18T10:41:38.559Z,48.7419
2023-04-18T10:42:40.856Z,47.5469
2023-04-18T10:43:43.202Z,47.4772
2023-04-18T10:44:45.549Z,46.8752
2023-04-18T10:45:47.892Z,46.7794
2023-04-18T10:46:50.282Z,46.2964
2023-04-18T10:47:52.671Z,46.6065
2023-04-18T10:48:54.924Z,47.2443
2023-04-18T10:49:57.262Z,46.9999
2023-04-18T10:50:59.599Z,47.9291
2023-04-18T10:52:02.213Z,46.9862
2023-04-18T10:53:04.292Z,47.6103
2023-04-18T10:54:06.638Z,47.2064
2023-04-18T10:55:08.987Z,47.1794
2023-04-18T10:56:11.312Z,47.3956
2023-04-18T10:57:13.667Z,47.9184
2023-04-18T10:58:15.992Z,47.6271
2023-04-18T10:59:18.331Z,47.4759
2023-04-18T11:00:20.742Z,48.6133
2023-04-18T11:01:23.068Z,48.6572
2023-04-18T11:02:25.542Z,48.0296
2023-04-18T11:03:27.765Z,47.3083
2023-04-18T11:04:30.137Z,46.3666
2023-04-18T11:05:32.433Z,46.3778
2023-04-18T11:06:34.746Z,46.3784
2023-04-18T11:07:37.095Z,44.8510
2023-04-18T11:08:39.443Z,44.6140
2023-04-18T11:09:42.599Z,44.6039
2023-04-18T11:10:44.127Z,43.4121
2023-04-18T11:11:46.466Z,43.0487
2023-04-18T11:12:48.830Z,42.8270
2023-04-18T11:13:51.164Z,42.5751
2023-04-18T11:14:53.500Z,41.9680
2023-04-18T11:15:55.844Z,42.0095
2023-04-18T11:16:58.256Z,43.2647
2023-04-18T11:18:00.616Z,44.1632
2023-04-18T11:19:02.873Z,44.6918
2023-04-18T11:20:05.224Z,44.9935
2023-04-18T11:21:07.564Z,45.3004
2023-04-18T11:22:09.913Z,44.0064
2023-04-18T11:23:12.264Z,44.1932
2023-04-18T11:24:14.706Z,44.1060
2023-04-18T11:25:16.981Z,44.5186
2023-04-18T11:26:19.375Z,43.7205
2023-04-18T11:27:21.629Z,43.3141
2023-04-18T11:28:24.012Z,43.1763
2023-04-18T11:29:26.323Z,42.9365
2023-04-18T11:30:28.673Z,43.3555
2023-04-18T11:31:31.028Z,43.0401
2023-04-18T11:32:33.403Z,43.0142
2023-04-18T11:33:35.755Z,43.7221
2023-04-18T11:34:38.051Z,43.7913
2023-04-18T11:35:40.391Z,43.2255
2023-04-18T11:36:42.742Z,43.4235
2023-04-18T11:37:45.132Z,43.1862
2023-04-18T11:38:47.429Z,43.4799
2023-04-18T11:39:49.778Z,44.2332
2023-04-18T11:40:52.110Z,44.8401
2023-04-18T11:41:54.469Z,45.4990
2023-04-18T11:42:56.815Z,46.3672
2023-04-18T11:43:59.160Z,46.1960
2023-04-18T11:45:01.501Z,46.0675
2023-04-18T11:46:03.872Z,46.2901
2023-04-18T11:47:06.179Z,46.0986
2023-04-18T11:48:08.567Z,45.1568
2023-04-18T11:49:10.876Z,45.3635
2023-04-18T11:50:13.239Z,45.7423
2023-04-18T11:51:15.567Z,45.2624
2023-04-18T11:52:17.908Z,43.8348
2023-04-18T11:53:20.290Z,43.8173
2023-04-18T11:54:22.602Z,43.8242
2023-04-18T11:55:24.955Z,43.4019
2023-04-18T11:56:27.291Z,42.4743
2023-04-18T11:57:29.732Z,43.2961
2023-04-18T11:58:32.074Z,43.3207
2023-04-18T11:59:34.433Z,42.6986
2023-04-18T12:00:36.752Z,42.9670
2023-04-18T12:01:39.101Z,42.7509
2023-04-18T12:02:41.657Z,44.2542
2023-04-18T12:03:44.125Z,42.4990
2023-04-18T12:04:46.344Z,42.1316
2023-04-18T12:05:48.759Z,43.4291
2023-04-18T12:06:50.855Z,41.8816
2023-04-18T12:07:53.189Z,40.8714
2023-04-18T12:08:55.541Z,39.2505
2023-04-18T12:09:57.882Z,38.5028
2023-04-18T12:11:00.228Z,39.8644
2023-04-18T12:12:02.587Z,40.4967
2023-04-18T12:13:04.947Z,41.2836
2023-04-18T12:14:07.278Z,39.4104
2023-04-18T12:15:09.620Z,38.1998
2023-04-18T12:16:11.979Z,37.7582
2023-04-18T12:17:14.342Z,38.9331
2023-04-18T12:18:16.665Z,38.8075
2023-04-18T12:19:19.010Z,38.5799
2023-04-18T12:20:21.357Z,39.2755
2023-04-18T12:21:23.710Z,39.0720
2023-04-18T12:22:26.053Z,39.3362
2023-04-18T12:23:28.420Z,38.8213
2023-04-18T12:24:30.752Z,39.2825
2023-04-18T12:25:33.100Z,39.2926
2023-04-18T12:26:35.444Z,39.4127
2023-04-18T12:27:37.790Z,39.4573
2023-04-18T12:28:40.141Z,38.4382
2023-04-18T12:29:42.512Z,38.3162
2023-04-18T12:30:44.842Z,37.9962
2023-04-18T12:31:47.260Z,38.0382
2023-04-18T12:32:49.628Z,38.4567
2023-04-18T12:33:51.889Z,37.9502